Flight Track Log - Related Links

Times and Time Zones

All times are in EDT time to prevent confusion due to time zone crossing. See the SWA378 flight status page for this flight to view local times or setup timezone preferences in your user account.

Time Position Orientation Groundspeed Altitude Reporting Facility
EDT Latitude Longitude Course Direction KTS MPH feet Rate Location/Type
Thu 01:21:51 PM 33.9303 -118.4939 229° Southwest 212 244 2,400  Level Los Center
Thu 01:22:53 PM 33.8658 -118.5225 200° South 253 291 3,700 1,984 Climbing Los Center
Thu 01:23:55 PM 33.7928 -118.5194 178° South 281 323 6,500 2,613 Climbing Los Center
Thu 01:24:57 PM 33.7106 -118.5144 177° South 303 349 9,100 2,371 Climbing Los Center
Thu 01:25:59 PM 33.6608 -118.4017 118° Southeast 334 384 11,400 2,274 Climbing Los Center
Thu 01:27:01 PM 33.6431 -118.2833 100° East 382 440 13,800 2,419 Climbing Los Center
Thu 01:28:03 PM 33.6444 -118.1575 89° East 385 443 16,400 2,710 Climbing Los Center
Thu 01:29:05 PM 33.6442 -117.9964 90° East 404 465 19,400 2,516 Climbing Los Center
Thu 01:30:07 PM 33.6442 -117.8597 90° East 413 475 21,600 2,177 Climbing Los Center
Thu 01:31:09 PM 33.6428 -117.7217 91° East 415 478 23,900 1,920 Climbing Los Center
Thu 01:32:12 PM 33.6436 -117.5825 90° East 419 482 25,600 1,680 Climbing Los Center
Thu 01:33:14 PM 33.6414 -117.4364 91° East 435 501 27,400 1,645 Climbing Los Center
Thu 01:34:16 PM 33.6411 -117.2878 90° East 445 512 29,000 1,161 Climbing Los Center
Thu 01:35:18 PM 33.6386 -117.0969 91° East 478 550 29,800 1,016 Climbing Los Center
Thu 01:36:20 PM 33.6567 -116.9317 82° East 501 577 31,100 1,452 Climbing Los Center
Thu 01:37:22 PM 33.6778 -116.7764 81° East 498 573 32,800 1,548 Climbing Los Center
Thu 01:38:24 PM 33.7011 -116.6142 80° East 492 566 34,300 1,306 Climbing Los Center
Thu 01:39:26 PM 33.7283 -116.4186 80° East 493 567 35,500 1,161 Climbing Los Center
Thu 01:40:28 PM 33.7511 -116.2542 80° East 497 572 36,700 726 Climbing Los Center
Thu 01:41:30 PM 33.7725 -116.0911 81° East 495 570 37,000 145 Climbing Los Center
Thu 01:42:32 PM 33.7950 -115.9289 80° East 492 566 37,000  Level Los Center
Thu 01:43:35 PM 33.8158 -115.7686 81° East 488 562 37,000  Level Los Center
Thu 01:44:37 PM 33.8372 -115.6053 81° East 491 565 37,000  Level Los Center
Thu 01:45:39 PM 33.8567 -115.4433 82° East 490 564 37,000  Level Los Center
Thu 01:46:41 PM 33.8828 -115.2475 81° East 493 567 37,000  Level Los Center
Thu 01:47:43 PM 33.9050 -115.0850 81° East 494 568 37,000  Level Los Center
Thu 01:48:45 PM 33.9247 -114.9222 82° East 492 566 37,000  Level Los Center
Thu 01:49:47 PM 33.9464 -114.7600 81° East 491 565 37,000  Level Los Center
Thu 01:50:49 PM 33.9664 -114.5972 82° East 491 565 37,000  Level Los Center
Thu 01:51:51 PM 33.9872 -114.4358 81° East 488 562 37,000  Level Los Center
Thu 01:52:53 PM 34.0100 -114.2403 82° East 491 565 37,000  Level Los Center
Thu 01:53:55 PM 34.0300 -114.0778 82° East 489 563 37,000  Level Los Center
Thu 01:54:58 PM 34.0494 -113.9158 82° East 491 565 37,000  Level Los Center
Thu 01:55:18 PM 34.0550 -113.8719 81° East 492 566 37,000  Level Albuquerque Center
Thu 01:56:20 PM 34.0742 -113.7106 82° East 490 564 37,000  Level Albuquerque Center
Thu 01:57:22 PM 34.0964 -113.5147 82° East 491 565 37,000  Level Albuquerque Center
Thu 01:58:24 PM 34.1144 -113.3525 82° East 489 563 37,000  Level Albuquerque Center
Thu 01:59:25 PM 34.1322 -113.1894 82° East 490 564 37,000  Level Albuquerque Center
Thu 02:00:27 PM 34.1508 -113.0253 82° East 492 566 37,000  Level Albuquerque Center
Thu 02:01:29 PM 34.1689 -112.8617 82° East 494 568 37,000  Level Albuquerque Center
Thu 02:02:31 PM 34.1869 -112.6983 82° East 492 566 37,000  Level Albuquerque Center
Thu 02:03:33 PM 34.2072 -112.5000 83° East 494 568 37,000  Level Albuquerque Center
Thu 02:04:35 PM 34.2253 -112.3342 82° East 495 570 37,000  Level Albuquerque Center
Thu 02:05:37 PM 34.2422 -112.1692 83° East 495 570 37,000  Level Albuquerque Center
Thu 02:06:38 PM 34.2594 -112.0033 83° East 494 568 37,000  Level Albuquerque Center
Thu 02:07:40 PM 34.2764 -111.8369 83° East 494 568 37,000  Level Albuquerque Center
Thu 02:08:42 PM 34.2933 -111.6697 83° East 494 568 37,000  Level Albuquerque Center
Thu 02:09:44 PM 34.3097 -111.5033 83° East 495 570 37,000  Level Albuquerque Center
Thu 02:10:46 PM 34.3253 -111.3372 83° East 496 571 37,000  Level Albuquerque Center
Thu 02:11:47 PM 34.3367 -111.1714 85° East 494 568 37,000  Level Albuquerque Center
Thu 02:12:49 PM 34.3453 -110.9694 87° East 498 573 37,000  Level Albuquerque Center
Thu 02:13:51 PM 34.3536 -110.8008 87° East 500 575 37,000  Level Albuquerque Center
Thu 02:14:53 PM 34.3625 -110.6328 86° East 501 577 37,000  Level Albuquerque Center
Thu 02:15:54 PM 34.3711 -110.4647 86° East 501 577 37,000  Level Albuquerque Center
Thu 02:16:56 PM 34.3781 -110.2883 87° East 503 579 37,000  Level Albuquerque Center
Thu 02:17:58 PM 34.3858 -110.1008 87° East 502 578 37,000  Level Albuquerque Center
Thu 02:19:00 PM 34.3931 -109.9392 87° East 502 578 37,000  Level Albuquerque Center
Thu 02:20:01 PM 34.4014 -109.7514 87° East 502 578 37,000  Level Albuquerque Center
Thu 02:21:03 PM 34.4075 -109.5892 87° East 504 580 37,000  Level Albuquerque Center
Thu 02:22:05 PM 34.4144 -109.4256 87° East 507 583 37,000  Level Albuquerque Center
Thu 02:23:07 PM 34.4214 -109.2364 87° East 507 583 37,000  Level Albuquerque Center
Thu 02:24:08 PM 34.4364 -109.0769 83° East 503 579 37,000  Level Albuquerque Center
Thu 02:25:10 PM 34.4711 -108.8936 77° East 500 575 37,000  Level Albuquerque Center
Thu 02:26:12 PM 34.4994 -108.7364 78° East 500 575 37,000  Level Albuquerque Center
Thu 02:27:13 PM 34.5331 -108.5536 77° East 499 574 37,000  Level Albuquerque Center
Thu 02:28:15 PM 34.5608 -108.3931 78° East 502 578 37,000  Level Albuquerque Center
Thu 02:29:17 PM 34.5914 -108.2286 77° East 501 577 37,000  Level Albuquerque Center
Thu 02:30:19 PM 34.6200 -108.0633 78° East 502 578 37,000  Level Albuquerque Center
Thu 02:31:20 PM 34.6497 -107.8981 78° East 501 577 37,000  Level Albuquerque Center
Thu 02:32:22 PM 34.6783 -107.7325 78° East 502 578 37,000  Level Albuquerque Center
Thu 02:33:24 PM 34.7069 -107.5664 78° East 503 579 37,000  Level Albuquerque Center
Thu 02:34:26 PM 34.7406 -107.3672 78° East 502 578 37,000  Level Albuquerque Center
Thu 02:35:27 PM 34.7689 -107.2025 78° East 502 578 37,000  Level Albuquerque Center
Thu 02:36:29 PM 34.7950 -107.0372 79° East 503 579 37,000  Level Albuquerque Center
Thu 02:37:31 PM 34.8222 -106.8719 79° East 506 582 37,000  Level Albuquerque Center
Thu 02:38:33 PM 34.8556 -106.6758 78° East 499 574 37,000  Level Albuquerque Center
Thu 02:39:34 PM 34.8831 -106.5100 79° East 502 578 37,000  Level Albuquerque Center
Thu 02:40:36 PM 34.9086 -106.3403 80° East 513 590 37,000  Level Albuquerque Center
Thu 02:41:38 PM 34.9364 -106.1747 78° East 505 581 37,000  Level Albuquerque Center
Thu 02:42:39 PM 34.9617 -106.0106 79° East 498 573 37,000  Level Albuquerque Center
Thu 02:43:41 PM 34.9883 -105.8408 79° East 494 568 37,000  Level Albuquerque Center
Thu 02:44:43 PM 35.0144 -105.6731 79° East 497 572 37,000  Level Albuquerque Center
Thu 02:45:45 PM 35.0450 -105.4769 79° East 501 577 37,000  Level Albuquerque Center
Thu 02:46:46 PM 35.0706 -105.3089 79° East 500 575 37,000  Level Albuquerque Center
Thu 02:47:48 PM 35.0958 -105.1406 80° East 501 577 37,000  Level Albuquerque Center
Thu 02:48:50 PM 35.1167 -104.9714 81° East 501 577 37,000  Level Albuquerque Center
Thu 02:49:52 PM 35.1236 -104.8019 87° East 497 572 37,000  Level Albuquerque Center
Thu 02:50:54 PM 35.1311 -104.6319 87° East 499 574 37,000  Level Albuquerque Center
Thu 02:51:56 PM 35.1414 -104.4592 86° East 500 575 37,000  Level Albuquerque Center
Thu 02:52:57 PM 35.1483 -104.2914 87° East 499 574 37,000  Level Albuquerque Center
Thu 02:53:59 PM 35.1564 -104.1219 87° East 499 574 37,000  Level Albuquerque Center
Thu 02:55:01 PM 35.1633 -103.9319 87° East 498 573 37,000  Level Albuquerque Center
Thu 02:56:03 PM 35.1700 -103.7614 87° East 500 575 37,000  Level Albuquerque Center
Thu 02:57:04 PM 35.1775 -103.5906 87° East 500 575 37,000 49 Level Albuquerque Center
Thu 02:58:06 PM 35.1833 -103.4197 88° East 501 577 37,100 484 Climbing Albuquerque Center
Thu 02:59:08 PM 35.1911 -103.2189 87° East 503 579 38,000 774 Climbing Albuquerque Center
Thu 03:00:10 PM 35.1978 -103.0433 87° East 511 588 38,700 488 Climbing Albuquerque Center
Thu 03:01:11 PM 35.2028 -102.8919 88° East 515 593 39,000 146 Climbing Albuquerque Center
Thu 03:02:13 PM 35.2081 -102.6842 88° East 511 588 39,000  Level Albuquerque Center
Thu 03:03:15 PM 35.2133 -102.5122 88° East 508 585 39,000  Level Albuquerque Center
Thu 03:04:17 PM 35.2186 -102.3411 88° East 506 582 39,000  Level Albuquerque Center
Thu 03:05:19 PM 35.2233 -102.1694 88° East 506 582 39,000  Level Albuquerque Center
Thu 03:06:21 PM 35.2272 -101.9994 88° East 503 579 39,000  Level Albuquerque Center
Thu 03:07:22 PM 35.2325 -101.8283 88° East 502 578 39,000  Level Albuquerque Center
Thu 03:08:24 PM 35.2369 -101.6417 88° East 499 574 39,000  Level Albuquerque Center
Thu 03:09:26 PM 35.2469 -101.4728 86° East 498 573 39,000  Level Albuquerque Center
Thu 03:10:28 PM 35.2539 -101.3078 87° East 494 568 39,000  Level Albuquerque Center
Thu 03:11:29 PM 35.2606 -101.1403 87° East 495 570 39,000  Level Albuquerque Center
Thu 03:12:31 PM 35.2692 -100.9411 87° East 492 566 39,000  Level Albuquerque Center
Thu 03:14:14 PM 35.2761 -100.6711 88° East 518 596 39,000  Level Fort Center
Thu 03:14:35 PM 35.2828 -100.6031 83° East 491 565 39,000  Level Albuquerque Center
Thu 03:15:37 PM 35.2878 -100.4342 88° East 494 568 39,000  Level Albuquerque Center
Thu 03:16:38 PM 35.2950 -100.2656 87° East 496 571 39,000  Level Albuquerque Center
Thu 03:17:40 PM 35.3011 -100.0981 87° East 494 568 39,000  Level Albuquerque Center
Thu 03:18:42 PM 35.3064 -99.9311 88° East 493 567 39,000  Level Albuquerque Center
Thu 03:19:44 PM 35.3103 -99.7658 88° East 489 563 39,000  Level Albuquerque Center
Thu 03:20:46 PM 35.3172 -99.5697 87° East 483 556 39,000  Level Albuquerque Center
Thu 03:21:48 PM 35.3217 -99.4047 88° East 486 559 39,000  Level Albuquerque Center
Thu 03:22:14 PM 35.3225 -99.3422 89° East 486 559 39,000  Level Fort Center
Thu 03:23:14 PM 35.3250 -99.1794 89° East 480 552 39,000  Level Fort Center
Thu 03:24:14 PM 35.3292 -99.0167 88° East 474 545 39,000  Level Fort Center
Thu 03:25:14 PM 35.3353 -98.8489 87° East 474 545 39,000  Level Fort Center
Thu 03:26:14 PM 35.3392 -98.6858 88° East 474 545 39,000  Level Fort Center
Thu 03:27:14 PM 35.3428 -98.5206 88° East 479 551 39,000  Level Fort Center
Thu 03:28:14 PM 35.3486 -98.3425 88° East 474 545 39,000  Level Fort Center
Thu 03:29:14 PM 35.3517 -98.1797 89° East 479 551 39,000  Level Fort Center
Thu 03:30:14 PM 35.3525 -98.0142 90° East 479 551 39,000  Level Fort Center
Thu 03:31:14 PM 35.3533 -97.8514 90° East 479 551 39,000  Level Fort Center
Thu 03:32:15 PM 35.3558 -97.6886 89° East 479 551 39,000  Level Fort Center
Thu 03:33:14 PM 35.3478 -97.5281 93° East 474 545 39,000  Level Fort Center
Thu 03:34:14 PM 35.3394 -97.3653 94° East 498 573 39,000  Level Fort Center
Thu 03:35:14 PM 35.3350 -97.1819 92° East 493 567 39,000  Level Fort Center
Thu 03:36:14 PM 35.3056 -97.0344 104° East 498 573 39,000  Level Fort Center
Thu 03:37:14 PM 35.2842 -96.8719 99° East 493 567 39,000  Level Fort Center
Thu 03:38:14 PM 35.2625 -96.7094 99° East 487 560 39,000  Level Fort Center
Thu 03:39:15 PM 35.2406 -96.5442 99° East 487 560 39,000  Level Fort Center
Thu 03:40:14 PM 35.2206 -96.3817 99° East 487 560 39,000  Level Fort Center
Thu 03:41:14 PM 35.2317 -96.2114 85° East 487 560 39,000  Level Fort Center
Thu 03:42:14 PM 35.2444 -96.0511 84° East 482 555 39,000  Level Fort Center
Thu 03:43:14 PM 35.2592 -95.8831 84° East 482 555 39,000  Level Fort Center
Thu 03:44:14 PM 35.2758 -95.7200 83° East 482 555 39,000  Level Fort Center
Thu 03:47:20 PM 35.3181 -95.1994 84° East 473 544 39,000  Level Memphis Center
Thu 03:48:20 PM 35.3283 -95.0372 86° East 473 544 39,000  Level Memphis Center
Thu 03:49:20 PM 35.3367 -94.8722 86° East 473 544 39,000  Level Memphis Center
Thu 03:50:20 PM 35.3300 -94.7089 93° East 478 550 39,000  Level Memphis Center
Thu 03:51:20 PM 35.3228 -94.5558 93° East 493 567 39,000  Level Memphis Center
Thu 03:52:20 PM 35.3133 -94.3925 94° East 493 567 39,000  Level Memphis Center
Thu 03:53:20 PM 35.3061 -94.2269 93° East 487 560 39,000  Level Memphis Center
Thu 03:54:20 PM 35.2986 -94.0636 93° East 482 555 39,000  Level Memphis Center
Thu 03:55:20 PM 35.2889 -93.9006 94° East 482 555 39,000  Level Memphis Center
Thu 03:56:20 PM 35.2808 -93.7347 93° East 482 555 39,000  Level Memphis Center
Thu 03:57:20 PM 35.2708 -93.5667 94° East 482 555 39,000  Level Memphis Center
Thu 03:58:20 PM 35.2603 -93.4008 94° East 482 555 39,000  Level Memphis Center
Thu 03:59:20 PM 35.2536 -93.2381 93° East 482 555 39,000  Level Memphis Center
Thu 04:00:20 PM 35.2428 -93.0750 95° East 482 555 39,000  Level Memphis Center
Thu 04:01:20 PM 35.2319 -92.9017 94° East 482 555 39,000  Level Memphis Center
Thu 04:02:20 PM 35.2225 -92.7336 94° East 482 555 39,000  Level Memphis Center
Thu 04:03:20 PM 35.2092 -92.5503 95° East 488 562 39,000  Level Memphis Center
Thu 04:04:20 PM 35.1994 -92.3875 94° East 488 562 39,000  Level Memphis Center
Thu 04:05:20 PM 35.1833 -92.2269 97° East 481 554 39,000  Level Memphis Center
Thu 04:06:20 PM 35.1522 -92.0714 104° East 475 547 39,000  Level Memphis Center
Thu 04:07:20 PM 35.1228 -91.9158 103° East 470 541 39,000  Level Memphis Center
Thu 04:08:20 PM 35.0933 -91.7581 103° East 470 541 39,000  Level Memphis Center
Thu 04:09:20 PM 35.0617 -91.5950 103° East 476 548 39,000  Level Memphis Center
Thu 04:10:20 PM 35.0319 -91.4350 103° East 476 548 39,000  Level Memphis Center
Thu 04:11:20 PM 35.0333 -91.2753 89° East 471 542 39,000  Level Memphis Center
Thu 04:12:20 PM 35.0322 -91.1153 90° East 471 542 39,000  Level Memphis Center
Thu 04:13:20 PM 35.0289 -90.9506 91° East 476 548 39,000  Level Memphis Center
Thu 04:14:20 PM 35.0294 -90.7933 90° East 476 548 39,000  Level Memphis Center
Thu 04:15:20 PM 35.0258 -90.6336 92° East 476 548 39,000  Level Memphis Center
Thu 04:16:20 PM 35.0239 -90.4761 91° East 471 542 39,000  Level Memphis Center
Thu 04:17:20 PM 35.0219 -90.3317 91° East 465 535 39,000  Level Memphis Center
Thu 04:18:20 PM 35.0197 -90.1769 91° East 459 528 39,000  Level Memphis Center
Thu 04:19:20 PM 35.0194 -90.0225 90° East 459 528 39,000  Level Memphis Center
Thu 04:20:20 PM 35.0064 -89.8653 96° East 459 528 39,000  Level Memphis Center
Thu 04:21:20 PM 34.9806 -89.6906 100° East 471 542 39,000  Level Memphis Center
Thu 04:22:20 PM 34.9525 -89.5361 102° East 479 551 39,000  Level Memphis Center
Thu 04:23:20 PM 34.9283 -89.3844 101° East 461 531 39,000  Level Memphis Center
Thu 04:24:20 PM 34.9042 -89.2328 101° East 454 522 39,000  Level Memphis Center
Thu 04:25:20 PM 34.8797 -89.0736 101° East 460 529 39,000  Level Memphis Center
Thu 04:26:20 PM 34.8594 -88.9397 100° East 460 529 39,000  Level Memphis Center
Thu 04:27:20 PM 34.8367 -88.7883 100° East 460 529 39,000  Level Memphis Center
Thu 04:28:20 PM 34.8139 -88.6344 100° East 460 529 39,000  Level Memphis Center
Thu 04:29:20 PM 34.7886 -88.4883 102° East 449 517 39,000  Level Memphis Center
Thu 04:30:20 PM 34.7656 -88.3397 101° East 444 511 39,000 -100 Level Memphis Center
Thu 04:31:20 PM 34.7422 -88.1886 101° East 450 518 38,800 -600 Descending Memphis Center
Thu 04:32:20 PM 34.7139 -88.0150 101° East 468 539 37,800 -1,000 Descending Memphis Center
Thu 04:33:20 PM 34.6900 -87.8592 101° East 468 539 36,800 -1,000 Descending Memphis Center
Thu 04:34:20 PM 34.6661 -87.7083 101° East 468 539 35,800 -967 Descending Memphis Center
Thu 04:36:20 PM 34.6203 -87.4186 101° East 449 517 33,900 -933 Descending Atlanta Center
Thu 04:37:20 PM 34.5908 -87.2761 104° East 443 510 33,000 -450 Descending Atlanta Center
Thu 04:38:20 PM 34.5631 -87.1364 104° East 431 496 33,000  Level Atlanta Center
Thu 04:39:20 PM 34.5372 -86.9967 103° East 426 490 33,000  Level Atlanta Center
Thu 04:40:20 PM 34.5092 -86.8569 104° East 426 490 33,000  Level Atlanta Center
Thu 04:41:20 PM 34.4831 -86.7150 103° East 426 490 33,000  Level Atlanta Center
Thu 04:42:20 PM 34.4550 -86.5706 103° East 426 490 33,000  Level Atlanta Center
Thu 04:43:20 PM 34.4283 -86.4311 103° East 426 490 33,000 -650 Level Atlanta Center
Thu 04:44:20 PM 34.4019 -86.2919 103° East 426 490 31,700 -1,650 Descending Atlanta Center
Thu 04:45:20 PM 34.3731 -86.1528 104° East 426 490 29,700 -1,950 Descending Atlanta Center
Thu 04:46:20 PM 34.3442 -86.0136 104° East 426 490 27,800 -1,900 Descending Atlanta Center
Thu 04:47:20 PM 34.3189 -85.8797 103° East 419 482 25,900 -1,800 Descending Atlanta Center
Thu 04:48:20 PM 34.2978 -85.7689 103° East 401 461 24,200 -1,750 Descending Atlanta Center
Thu 04:49:20 PM 34.2681 -85.6425 106° East 381 438 22,400 -1,750 Descending Atlanta Center
Thu 04:50:20 PM 34.2467 -85.5239 102° East 371 427 20,700 -1,850 Descending Atlanta Center
Thu 04:51:20 PM 34.2208 -85.3978 104° East 372 428 18,700 -2,150 Descending Atlanta Center
Thu 04:52:20 PM 34.1931 -85.2644 104° East 401 461 16,400 -2,400 Descending Atlanta Center
Thu 04:53:20 PM 34.1650 -85.1383 105° East 396 456 13,900 -1,700 Descending Atlanta Center
Thu 04:54:20 PM 34.1011 -85.0397 128° Southeast 366 421 13,000 -600 Descending Atlanta Center
Thu 04:55:20 PM 34.0411 -84.9639 134° Southeast 327 376 12,700 -650 Descending Atlanta Center
Thu 04:56:20 PM 33.9853 -84.8931 134° Southeast 298 343 11,700 -1,050 Descending Atlanta Center
Thu 04:57:20 PM 33.9169 -84.8447 150° Southeast 298 343 10,600 -1,200 Descending Atlanta Center
Thu 04:58:20 PM 33.8483 -84.8067 155° Southeast 284 327 9,300 -1,403 Descending Atlanta Center
Thu 04:58:37 PM 33.8333 -84.7833 128° Southeast 267 307 8,800 -1,521 Descending Atlanta TRACON
Thu 04:59:31 PM 33.7667 -84.7667 168° South 247 284 7,500 -1,474 Descending Atlanta TRACON
Thu 05:00:31 PM 33.7000 -84.7667 180° South 256 295 6,000 -1,150 Descending Atlanta TRACON
Thu 05:01:31 PM 33.6500 -84.7167 140° Southeast 235 270 5,200 -700 Descending Atlanta TRACON
Thu 05:02:31 PM 33.6500 -84.6500 90° East 204 235 4,600 -750 Descending Atlanta TRACON
Thu 05:03:31 PM 33.6500 -84.5833 90° East 177 204 3,700 -1,095 Descending Atlanta TRACON
Thu 05:04:37 PM 33.6500 -84.5167 90° East 178 205 2,300 -1,000 Descending Atlanta TRACON
Thu 05:05:37 PM 33.6500 -84.4667 90° East 142 163 1,600 -700 Descending Atlanta TRACON
Thu 05:07:00 PM 33.6367 -84.4279 North  Level Estimated
Thu 05:14:00 PM 33.6367 -84.4279 North  Level Estimated
Thu 05:15:00 PM 33.6367 -84.4279 North  Level Estimated

Login

Don't have an account? Register now (free) for customized features, flight alerts, and more!